Time;durP1;ratioP1;P1;durP2;ratioP2;P2;SDS_P1;SDS_P2;PMS_P1;PMS_P2;Temp;Humidity;BMP_temperature;BMP_pressure;BME280_temperature;BME280_humidity;BME280_pressure;Samples;Min_cycle;Max_cycle;Signal;HPM_P1;HPM_P2
2023/02/24 00:01:26;;;;;;;35.33;21.05;;;12.20;61.90;;;;;;5033851;28;20514;-74
2023/02/24 00:03:55;;;;;;;35.53;21.13;;;12.20;62.00;;;;;;5033367;28;20061;-74
2023/02/24 00:06:35;;;;;;;36.95;22.23;;;12.10;62.10;;;;;;5033489;28;20025;-74
2023/02/24 00:09:06;;;;;;;45.22;26.33;;;12.00;62.10;;;;;;5033611;28;20027;-74
2023/02/24 00:11:33;;;;;;;54.75;28.17;;;12.00;62.10;;;;;;5033385;28;20029;-75
2023/02/24 00:13:59;;;;;;;40.75;24.08;;;12.00;62.40;;;;;;5033666;28;20052;-73
2023/02/24 00:16:25;;;;;;;37.00;23.33;;;11.90;62.50;;;;;;5033749;28;20471;-74
2023/02/24 00:18:51;;;;;;;40.03;23.92;;;11.90;62.50;;;;;;5033804;28;20021;-74
2023/02/24 00:21:17;;;;;;;42.08;26.10;;;11.90;63.20;;;;;;5033529;28;20032;-75
2023/02/24 00:23:45;;;;;;;35.25;21.73;;;11.90;62.40;;;;;;5033335;28;20026;-75
2023/02/24 00:26:13;;;;;;;41.63;22.98;;;11.80;62.40;;;;;;5052441;28;20056;-74
2023/02/24 00:28:40;;;;;;;48.30;26.48;;;11.80;62.60;;;;;;5052436;28;20162;-73
2023/02/24 00:31:15;;;;;;;44.88;26.00;;;11.80;62.50;;;;;;5053386;28;20489;-75
2023/02/24 00:33:42;;;;;;;40.88;24.13;;;11.70;63.00;;;;;;5034734;28;20486;-74
2023/02/24 00:36:23;;;;;;;37.30;22.65;;;11.70;63.20;;;;;;5053011;28;20025;-74
2023/02/24 00:38:56;;;;;;;37.92;22.77;;;11.60;63.30;;;;;;5053147;28;20014;-75
2023/02/24 00:41:31;;;;;;;44.13;24.88;;;11.60;63.30;;;;;;5035209;28;20045;-74
2023/02/24 00:44:05;;;;;;;43.30;24.67;;;11.50;63.80;;;;;;5053238;28;20025;-75
2023/02/24 00:46:36;;;;;;;39.50;22.17;;;11.50;64.10;;;;;;5053154;28;20474;-74
2023/02/24 00:49:05;;;;;;;37.40;23.02;;;11.50;64.10;;;;;;5053475;28;20025;-75
2023/02/24 00:51:40;;;;;;;40.95;23.15;;;11.50;64.20;;;;;;5052878;28;20025;-74
2023/02/24 00:54:07;;;;;;;40.22;23.58;;;11.50;64.30;;;;;;5052978;28;20086;-74
2023/02/24 00:56:33;;;;;;;38.50;23.27;;;11.50;64.40;;;;;;5035032;28;20115;-74
2023/02/24 00:59:00;;;;;;;39.25;23.23;;;11.50;64.60;;;;;;5047025;28;20083;-75
2023/02/24 01:01:32;;;;;;;50.78;26.35;;;11.40;64.60;;;;;;5034173;28;20032;-74
2023/02/24 01:04:00;;;;;;;38.13;24.58;;;11.40;64.60;;;;;;5053058;28;20087;-74
2023/02/24 01:06:28;;;;;;;43.17;23.38;;;11.40;64.50;;;;;;5035106;28;20386;-74
2023/02/24 01:08:56;;;;;;;39.03;21.42;;;11.40;64.50;;;;;;5055271;28;20535;-75
2023/02/24 01:14:18;;;;;;;;;;;11.40;64.60;;;;;;5056829;28;20448;-74
2023/02/24 01:16:49;;;;;;;35.88;22.13;;;11.40;64.10;;;;;;5038464;28;19931;-74
2023/02/24 01:19:16;;;;;;;34.38;22.20;;;11.50;64.30;;;;;;5056573;28;20024;-74
2023/02/24 01:21:42;;;;;;;41.67;23.83;;;11.50;64.40;;;;;;5056522;28;20429;-75
2023/02/24 01:24:09;;;;;;;43.58;23.90;;;11.50;64.40;;;;;;5056186;28;20017;-74
2023/02/24 01:26:35;;;;;;;33.80;21.17;;;11.50;64.50;;;;;;5056440;28;20021;-75
2023/02/24 01:29:03;;;;;;;31.65;19.85;;;11.50;64.40;;;;;;5055538;28;20025;-75
2023/02/24 01:31:29;;;;;;;33.85;21.35;;;11.50;64.30;;;;;;5055984;28;20021;-75
2023/02/24 01:33:55;;;;;;;38.00;22.38;;;11.50;64.30;;;;;;5056014;28;20382;-74
2023/02/24 01:36:26;;;;;;;38.75;23.33;;;11.50;64.20;;;;;;5055956;28;20017;-75
2023/02/24 01:38:52;;;;;;;37.47;22.45;;;11.60;64.20;;;;;;5056266;28;20075;-75
2023/02/24 01:41:22;;;;;;;45.92;26.13;;;11.60;64.00;;;;;;5055826;28;20033;-74
2023/02/24 01:44:04;;;;;;;42.10;23.75;;;11.60;63.90;;;;;;5055823;28;20017;-74
2023/02/24 01:46:33;;;;;;;38.42;22.92;;;11.60;63.90;;;;;;5038031;28;20029;-75
2023/02/24 01:49:21;;;;;;;37.47;22.77;;;11.60;63.90;;;;;;5055750;28;20021;-74
2023/02/24 01:52:04;;;;;;;45.50;25.75;;;11.60;63.90;;;;;;5056261;28;20036;-74
2023/02/24 01:54:37;;;;;;;39.08;22.73;;;11.60;63.80;;;;;;5055539;28;20032;-75
2023/02/24 01:57:06;;;;;;;45.15;27.05;;;11.60;63.70;;;;;;5055678;28;20036;-73
2023/02/24 01:59:34;;;;;;;42.58;25.45;;;11.60;63.70;;;;;;5055130;28;20104;-74
2023/02/24 02:02:05;;;;;;;44.08;27.17;;;11.60;63.60;;;;;;5037472;28;20033;-74
2023/02/24 02:04:57;;;;;;;38.42;22.77;;;11.60;63.60;;;;;;5055466;28;20029;-74
2023/02/24 02:07:26;;;;;;;37.63;24.23;;;11.60;63.60;;;;;;5054835;28;20428;-74
2023/02/24 02:09:54;;;;;;;37.20;23.40;;;11.70;63.70;;;;;;5055169;28;20036;-74
2023/02/24 02:12:23;;;;;;;39.85;24.05;;;11.70;63.70;;;;;;5055024;28;20025;-75
2023/02/24 02:14:53;;;;;;;40.97;25.40;;;11.70;63.70;;;;;;5055106;28;20013;-74
2023/02/24 02:17:58;;;;;;;46.88;25.30;;;11.60;63.60;;;;;;5055044;28;20437;-74
2023/02/24 02:20:57;;;;;;;42.30;24.08;;;11.60;63.70;;;;;;5054385;28;20537;-74
2023/02/24 02:23:39;;;;;;;33.00;20.83;;;11.70;63.70;;;;;;5055171;28;20040;-75
2023/02/24 02:26:43;;;;;;;35.22;21.15;;;11.70;63.60;;;;;;5033471;28;20417;-74
2023/02/24 02:29:51;;;;;;;29.70;18.65;;;11.70;63.60;;;;;;5033934;28;20107;-75
2023/02/24 02:32:23;;;;;;;33.53;20.15;;;11.80;63.50;;;;;;5034486;28;20058;-74
2023/02/24 02:34:57;;;;;;;33.97;20.30;;;11.70;63.30;;;;;;5034865;28;20021;-74
2023/02/24 02:37:32;;;;;;;34.67;20.23;;;11.70;63.20;;;;;;5034725;28;20025;-74
2023/02/24 02:40:22;;;;;;;35.10;20.02;;;11.70;63.10;;;;;;5034515;28;20029;-75
2023/02/24 02:43:13;;;;;;;30.80;19.38;;;11.70;63.20;;;;;;5034650;28;20025;-74
2023/02/24 02:45:54;;;;;;;31.65;19.38;;;11.60;63.10;;;;;;5034623;28;20021;-75
2023/02/24 02:48:58;;;;;;;36.13;21.35;;;11.70;63.20;;;;;;5033332;28;20034;-75
2023/02/24 02:51:29;;;;;;;35.92;21.80;;;11.60;63.20;;;;;;5030449;28;20433;-74
2023/02/24 02:54:03;;;;;;;38.22;21.30;;;11.60;63.30;;;;;;5034410;28;20052;-75
2023/02/24 02:56:42;;;;;;;32.42;21.05;;;11.60;63.30;;;;;;5034464;28;20071;-75
2023/02/24 02:59:13;;;;;;;45.28;25.23;;;11.60;63.40;;;;;;5032269;28;20018;-75
2023/02/24 03:01:42;;;;;;;42.03;25.08;;;11.60;63.50;;;;;;5034601;28;20025;-74
2023/02/24 03:04:15;;;;;;;36.55;21.77;;;11.50;63.60;;;;;;5034863;28;20076;-74
2023/02/24 03:07:01;;;;;;;38.25;21.13;;;11.50;63.40;;;;;;5016953;28;20064;-75
2023/02/24 03:09:34;;;;;;;32.28;20.02;;;11.50;63.40;;;;;;5034648;28;20033;-76
2023/02/24 03:12:08;;;;;;;34.10;19.53;;;11.50;63.40;;;;;;5034340;28;20025;-75
2023/02/24 03:14:38;;;;;;;42.60;22.95;;;11.40;63.40;;;;;;5034334;28;20026;-75
2023/02/24 03:17:12;;;;;;;45.20;25.25;;;11.40;63.50;;;;;;5034487;28;20025;-75
2023/02/24 03:19:39;;;;;;;47.03;25.92;;;11.40;63.50;;;;;;5034271;28;20021;-74
2023/02/24 03:22:18;;;;;;;43.58;25.05;;;11.30;63.80;;;;;;5034001;28;20498;-75
2023/02/24 03:24:45;;;;;;;46.78;25.80;;;11.20;64.00;;;;;;5041102;28;20103;-76
2023/02/24 03:27:19;;;;;;;42.60;24.30;;;11.20;64.20;;;;;;5036028;28;20486;-75
2023/02/24 03:29:52;;;;;;;42.45;23.85;;;11.10;64.40;;;;;;5053493;28;20501;-75
2023/02/24 03:32:42;;;;;;;40.67;23.92;;;11.10;64.50;;;;;;5052627;28;20060;-74
2023/02/24 03:35:08;;;;;;;38.95;23.63;;;11.10;64.70;;;;;;5053689;28;20441;-73
2023/02/24 03:37:35;;;;;;;40.95;24.27;;;11.10;64.70;;;;;;5035876;28;20112;-73
2023/02/24 03:40:14;;;;;;;40.83;23.58;;;11.10;64.80;;;;;;5035737;28;20047;-76
2023/02/24 03:42:45;;;;;;;45.03;25.48;;;11.10;65.00;;;;;;5035708;28;20024;-73
2023/02/24 03:45:11;;;;;;;39.83;23.73;;;11.10;64.90;;;;;;5053904;28;20471;-74
2023/02/24 03:47:39;;;;;;;42.83;25.42;;;11.20;64.90;;;;;;5053518;28;20389;-73
2023/02/24 03:50:20;;;;;;;43.70;24.30;;;11.20;64.80;;;;;;5053468;28;20475;-73
2023/02/24 03:52:54;;;;;;;35.78;21.55;;;11.20;64.80;;;;;;5053264;28;20405;-74
2023/02/24 03:55:20;;;;;;;;;;;11.30;64.90;;;;;;5053948;28;20433;-74
2023/02/24 03:57:58;;;;;;;39.75;21.98;;;11.30;64.60;;;;;;5053545;28;19905;-74
2023/02/24 04:00:39;;;;;;;38.40;23.30;;;11.30;64.60;;;;;;5053188;28;20028;-75
2023/02/24 04:03:40;;;;;;;46.15;24.63;;;11.30;64.70;;;;;;5053578;28;20494;-73
2023/02/24 04:06:33;;;;;;;41.08;24.48;;;11.30;64.70;;;;;;5031606;28;20048;-74
2023/02/24 04:09:07;;;;;;;37.05;23.52;;;11.30;64.80;;;;;;5053409;28;20021;-75
2023/02/24 04:11:54;;;;;;;;;;;11.30;64.80;;;;;;5053997;28;20437;-74
2023/02/24 04:14:33;;;;;;;29.23;19.55;;;11.30;64.50;;;;;;5053551;28;19904;-74
2023/02/24 04:17:18;;;;;;;31.42;19.10;;;11.40;64.60;;;;;;5053355;28;20459;-74
2023/02/24 04:19:47;;;;;;;38.83;24.17;;;11.40;64.70;;;;;;5035251;28;20025;-75
2023/02/24 04:22:17;;;;;;;41.25;24.70;;;11.40;64.70;;;;;;5053409;28;20021;-75
2023/02/24 04:24:47;;;;;;;52.45;29.50;;;11.50;64.70;;;;;;5052773;28;20044;-73
2023/02/24 04:27:14;;;;;;;53.17;30.25;;;11.40;64.60;;;;;;5035183;28;20114;-74
2023/02/24 04:29:47;;;;;;;49.15;28.55;;;11.40;64.50;;;;;;5052471;28;20025;-74
2023/02/24 04:32:17;;;;;;;44.55;26.27;;;11.40;64.50;;;;;;5052926;28;20029;-74
2023/02/24 04:34:44;;;;;;;49.83;28.27;;;11.40;65.20;;;;;;5053090;28;20026;-75
2023/02/24 04:37:10;;;;;;;52.95;29.98;;;11.40;64.40;;;;;;5053323;28;20021;-74
2023/02/24 04:39:39;;;;;;;54.72;29.65;;;11.30;64.30;;;;;;5053290;28;20084;-74
2023/02/24 04:42:06;;;;;;;47.05;27.92;;;11.30;64.50;;;;;;5052785;28;20033;-74
2023/02/24 04:44:32;;;;;;;38.25;24.58;;;11.20;64.40;;;;;;5056708;28;20094;-76
2023/02/24 04:46:59;;;;;;;42.20;24.60;;;11.20;64.50;;;;;;5057147;28;20024;-75
2023/02/24 04:49:26;;;;;;;44.05;25.05;;;11.10;64.50;;;;;;5056787;28;20025;-75
2023/02/24 04:51:52;;;;;;;47.42;27.48;;;11.10;64.80;;;;;;5056675;28;20067;-75
2023/02/24 04:54:19;;;;;;;42.72;24.02;;;11.00;65.00;;;;;;5038871;28;20390;-74
2023/02/24 04:56:50;;;;;;;40.95;25.27;;;11.00;65.20;;;;;;5038828;28;20478;-75
2023/02/24 04:59:20;;;;;;;41.45;25.13;;;10.90;65.50;;;;;;5056220;28;20075;-74
2023/02/24 05:01:50;;;;;;;42.25;24.60;;;10.90;65.70;;;;;;5050721;28;20032;-74
2023/02/24 05:04:16;;;;;;;46.17;24.45;;;10.90;65.80;;;;;;5038627;28;20033;-74
2023/02/24 05:06:45;;;;;;;41.25;23.10;;;10.90;65.90;;;;;;5038496;28;20029;-74
2023/02/24 05:09:13;;;;;;;37.30;21.35;;;10.90;66.00;;;;;;5056402;28;20062;-75
2023/02/24 05:11:50;;;;;;;34.15;20.90;;;11.00;66.00;;;;;;5056243;28;20028;-75
2023/02/24 05:14:19;;;;;;;46.70;27.38;;;11.00;66.00;;;;;;5056740;28;20025;-75
2023/02/24 05:16:47;;;;;;;41.08;24.05;;;11.00;66.00;;;;;;5038385;28;20037;-74
2023/02/24 05:22:02;;;;;;;36.70;22.90;;;11.00;66.00;;;;;;5056025;28;20106;-75
2023/02/24 05:24:29;;;;;;;39.00;22.80;;;11.10;65.90;;;;;;5056211;28;20041;-74
2023/02/24 05:26:59;;;;;;;37.25;21.73;;;11.10;65.80;;;;;;5056044;28;20535;-74
2023/02/24 05:29:30;;;;;;;37.80;21.70;;;11.20;65.90;;;;;;5055914;28;20033;-74
2023/02/24 05:31:59;;;;;;;36.90;21.38;;;11.20;65.70;;;;;;5056404;28;20032;-75
2023/02/24 05:34:30;;;;;;;37.10;23.75;;;11.20;65.60;;;;;;5037979;28;20537;-74
2023/02/24 05:36:58;;;;;;;36.80;21.77;;;11.30;65.60;;;;;;5055914;28;20033;-75
2023/02/24 05:39:27;;;;;;;40.67;24.35;;;11.30;66.20;;;;;;5055837;28;20063;-74
2023/02/24 05:41:56;;;;;;;39.95;24.83;;;11.30;65.40;;;;;;5055808;28;20478;-75
2023/02/24 05:44:24;;;;;;;41.65;25.30;;;11.40;65.50;;;;;;5055782;28;20025;-74
2023/02/24 05:46:58;;;;;;;42.92;26.10;;;11.40;65.40;;;;;;5037742;28;20481;-75
2023/02/24 05:49:31;;;;;;;39.65;24.13;;;11.40;65.40;;;;;;5056033;28;20025;-75
2023/02/24 05:52:06;;;;;;;33.35;20.33;;;11.40;65.40;;;;;;5055433;28;20025;-75
2023/02/24 05:54:38;;;;;;;38.33;21.58;;;11.40;65.30;;;;;;5054548;28;20029;-74
2023/02/24 05:57:08;;;;;;;37.38;21.00;;;11.40;65.30;;;;;;5055502;28;20020;-75
2023/02/24 05:59:34;;;;;;;36.88;23.15;;;11.50;65.30;;;;;;5054653;28;20028;-75
2023/02/24 06:02:11;;;;;;;37.03;21.88;;;11.50;65.30;;;;;;5055383;28;20028;-75
2023/02/24 06:04:44;;;;;;;35.30;21.05;;;11.50;65.10;;;;;;5052986;28;20029;-76
2023/02/24 06:07:12;;;;;;;49.65;29.02;;;11.50;65.10;;;;;;5060094;28;20059;-74
2023/02/24 06:09:41;;;;;;;43.63;27.13;;;11.60;65.00;;;;;;5034157;28;20036;-76
2023/02/24 06:12:08;;;;;;;46.53;27.27;;;11.60;65.00;;;;;;5053065;28;20024;-75
2023/02/24 06:14:34;;;;;;;46.92;26.25;;;11.60;65.00;;;;;;5060546;28;20107;-75
2023/02/24 06:17:03;;;;;;;38.38;23.30;;;11.50;65.00;;;;;;5058120;28;20126;-75
2023/02/24 06:19:32;;;;;;;38.83;24.67;;;11.60;65.10;;;;;;5064330;28;20039;-74
2023/02/24 06:22:00;;;;;;;46.42;25.95;;;11.60;65.10;;;;;;5064279;28;20473;-73
2023/02/24 06:24:27;;;;;;;42.17;25.88;;;11.60;65.10;;;;;;5053608;28;20041;-76
2023/02/24 06:27:01;;;;;;;43.33;26.55;;;11.60;65.10;;;;;;5055352;28;20033;-76
2023/02/24 06:29:28;;;;;;;46.03;26.48;;;11.60;65.10;;;;;;5036650;28;20025;-75
2023/02/24 06:31:56;;;;;;;44.92;25.25;;;11.60;65.10;;;;;;5054670;28;20481;-76
2023/02/24 06:34:24;;;;;;;35.05;22.67;;;11.60;65.00;;;;;;5037229;28;20060;-75
2023/02/24 06:36:53;;;;;;;41.70;26.25;;;11.60;64.90;;;;;;5054637;28;20021;-76
2023/02/24 06:39:18;;;;;;;40.95;25.77;;;11.60;65.00;;;;;;5054516;28;20025;-76
2023/02/24 06:41:47;;;;;;;37.95;23.83;;;11.60;65.10;;;;;;5054767;28;20044;-75
2023/02/24 06:44:13;;;;;;;45.67;25.27;;;11.70;65.30;;;;;;5055081;28;20036;-76
2023/02/24 06:46:40;;;;;;;40.70;23.05;;;11.70;65.30;;;;;;5055203;28;20021;-74
2023/02/24 06:49:06;;;;;;;38.83;21.80;;;11.80;65.40;;;;;;5054503;28;20040;-75
2023/02/24 06:51:32;;;;;;;52.92;22.65;;;11.80;65.40;;;;;;5036761;28;20029;-75
2023/02/24 06:53:58;;;;;;;41.67;24.38;;;11.90;65.40;;;;;;5054711;28;20017;-75
2023/02/24 06:56:25;;;;;;;39.58;22.75;;;11.90;65.30;;;;;;5052857;28;20051;-75
2023/02/24 06:58:54;;;;;;;52.05;28.50;;;12.00;65.20;;;;;;5054160;28;20021;-75
2023/02/24 07:01:24;;;;;;;56.53;28.67;;;12.10;65.10;;;;;;5051863;28;20032;-75
2023/02/24 07:06:37;;;;;;;35.38;22.15;;;12.20;64.70;;;;;;5054240;28;20024;-75
2023/02/24 07:09:06;;;;;;;37.72;22.55;;;12.20;64.60;;;;;;5054211;28;20017;-75
2023/02/24 07:11:33;;;;;;;47.72;27.98;;;12.30;64.60;;;;;;5054221;28;20039;-75
2023/02/24 07:13:59;;;;;;;42.35;25.48;;;12.30;64.20;;;;;;5054343;28;20027;-76
2023/02/24 07:16:27;;;;;;;38.97;23.83;;;12.40;64.20;;;;;;5054043;28;20016;-75
2023/02/24 07:18:58;;;;;;;45.08;23.70;;;12.40;64.10;;;;;;5054256;28;20020;-77
2023/02/24 07:21:28;;;;;;;44.85;26.33;;;12.40;64.00;;;;;;5054207;28;20478;-75
2023/02/24 07:23:55;;;;;;;44.22;24.80;;;12.50;64.00;;;;;;5053863;28;20035;-75
2023/02/24 07:26:25;;;;;;;41.72;24.30;;;12.50;63.70;;;;;;5054136;28;20386;-75
2023/02/24 07:28:53;;;;;;;44.35;24.48;;;12.50;63.50;;;;;;5053414;28;20532;-76
2023/02/24 07:31:22;;;;;;;38.75;24.05;;;12.60;63.40;;;;;;5053532;28;20539;-75
2023/02/24 07:33:51;;;;;;;37.65;21.65;;;12.60;63.30;;;;;;5036146;28;20111;-75
2023/02/24 07:36:21;;;;;;;36.53;22.38;;;12.60;63.30;;;;;;5053665;28;20017;-76
2023/02/24 07:38:52;;;;;;;36.45;22.70;;;12.60;63.20;;;;;;5053578;28;20020;-76
2023/02/24 07:41:21;;;;;;;35.97;22.52;;;12.60;63.30;;;;;;5053718;28;20126;-76
2023/02/24 07:43:51;;;;;;;38.92;23.48;;;12.60;63.40;;;;;;5053739;28;20047;-75
2023/02/24 07:46:23;;;;;;;37.85;23.02;;;12.60;63.40;;;;;;5054443;28;20363;-75
2023/02/24 07:48:53;;;;;;;47.42;23.10;;;12.60;63.50;;;;;;5035690;28;20029;-76
2023/02/24 07:51:25;;;;;;;44.30;25.17;;;12.70;63.80;;;;;;5053520;28;20041;-76
2023/02/24 07:53:57;;;;;;;53.15;29.45;;;12.70;63.80;;;;;;5053613;28;20021;-76
2023/02/24 07:56:25;;;;;;;52.15;27.58;;;12.80;63.50;;;;;;5053995;28;20040;-75
2023/02/24 07:58:58;;;;;;;45.33;24.58;;;12.80;63.40;;;;;;5052759;28;20017;-75
2023/02/24 08:01:27;;;;;;;42.13;24.83;;;12.90;64.00;;;;;;5053814;28;20052;-77
2023/02/24 08:04:00;;;;;;;36.97;22.60;;;13.00;63.50;;;;;;5035188;28;20027;-76
2023/02/24 08:06:37;;;;;;;40.33;23.50;;;13.10;63.30;;;;;;5053211;28;20547;-75
2023/02/24 08:09:17;;;;;;;38.60;24.00;;;13.10;63.20;;;;;;5053397;28;20024;-75
2023/02/24 08:11:51;;;;;;;40.05;22.92;;;13.20;63.10;;;;;;5053605;28;20021;-76
2023/02/24 08:14:22;;;;;;;39.83;23.58;;;13.40;63.10;;;;;;5035472;28;20058;-75
2023/02/24 08:16:51;;;;;;;40.38;24.20;;;13.40;63.00;;;;;;5053115;28;20477;-76
2023/02/24 08:19:19;;;;;;;40.05;25.30;;;13.50;62.80;;;;;;5052793;28;20025;-76
2023/02/24 08:21:52;;;;;;;37.38;23.10;;;13.60;62.60;;;;;;5035174;28;20034;-76
2023/02/24 08:24:22;;;;;;;42.25;25.85;;;13.70;62.30;;;;;;5052969;28;20037;-75
2023/02/24 08:27:05;;;;;;;44.95;27.30;;;13.70;61.80;;;;;;5052841;28;20040;-76
2023/02/24 08:29:56;;;;;;;46.00;27.23;;;13.80;61.30;;;;;;5052809;28;20060;-75
2023/02/24 08:32:23;;;;;;;44.92;25.45;;;13.80;61.30;;;;;;5052834;28;20409;-76
2023/02/24 08:34:49;;;;;;;40.42;25.08;;;13.90;61.60;;;;;;5053178;28;20024;-74
2023/02/24 08:37:16;;;;;;;44.47;28.20;;;14.00;61.70;;;;;;5053122;28;20104;-75
2023/02/24 08:39:43;;;;;;;39.22;24.92;;;14.00;61.30;;;;;;5053201;28;20094;-75
2023/02/24 08:42:13;;;;;;;55.17;31.20;;;14.10;61.50;;;;;;5053139;28;20028;-75
2023/02/24 08:44:39;;;;;;;43.72;26.42;;;14.20;60.60;;;;;;5053504;28;20094;-75
2023/02/24 08:47:08;;;;;;;45.42;24.70;;;14.30;60.90;;;;;;5052675;28;20029;-76
2023/02/24 08:49:34;;;;;;;44.92;26.55;;;14.40;61.20;;;;;;5052819;28;20021;-77
2023/02/24 08:52:06;;;;;;;45.47;26.10;;;14.50;61.20;;;;;;5052877;28;20112;-77
2023/02/24 08:54:32;;;;;;;36.55;24.95;;;14.60;61.00;;;;;;5052788;28;20028;-75
2023/02/24 08:57:06;;;;;;;41.15;25.08;;;14.80;60.70;;;;;;5052808;28;20042;-76
2023/02/24 08:59:39;;;;;;;38.42;23.42;;;14.90;60.20;;;;;;5052441;28;20025;-76
2023/02/24 09:02:23;;;;;;;45.33;25.70;;;15.00;59.70;;;;;;5049028;28;20033;-76
2023/02/24 09:05:15;;;;;;;45.40;24.85;;;15.10;59.50;;;;;;5053131;28;20025;-76
2023/02/24 09:07:41;;;;;;;39.78;23.90;;;15.10;59.30;;;;;;5030871;28;20048;-76
2023/02/24 09:10:16;;;;;;;42.30;27.00;;;15.10;59.10;;;;;;5052148;28;20059;-75
2023/02/24 09:12:43;;;;;;;40.50;24.95;;;15.20;59.20;;;;;;5052192;28;20178;-76
2023/02/24 09:15:10;;;;;;;49.72;25.85;;;15.30;59.20;;;;;;5052531;28;20378;-76
2023/02/24 09:17:39;;;;;;;40.85;25.48;;;15.40;59.00;;;;;;5052441;28;20021;-76
2023/02/24 09:23:02;;;;;;;38.65;23.90;;;15.50;58.70;;;;;;5051642;28;20483;-75
2023/02/24 09:25:48;;;;;;;37.90;24.20;;;15.60;58.50;;;;;;5052400;28;20049;-75
2023/02/24 09:28:16;;;;;;;40.25;24.42;;;15.60;58.20;;;;;;5053182;28;20029;-75
2023/02/24 09:30:52;;;;;;;46.92;27.42;;;15.70;58.20;;;;;;5055000;28;20434;-75
2023/02/24 09:33:37;;;;;;;44.28;25.38;;;15.70;57.90;;;;;;5056273;28;20063;-78
2023/02/24 09:37:01;;;;;;;44.55;25.90;;;15.70;57.70;;;;;;5056121;28;20021;-76
2023/02/24 09:41:55;;;;;;;45.88;27.23;;;15.70;57.70;;;;;;5055682;28;20111;-77
2023/02/24 09:44:32;;;;;;;48.22;27.67;;;15.80;57.60;;;;;;5055855;28;20024;-76
2023/02/24 09:47:38;;;;;;;40.58;25.17;;;15.80;57.80;;;;;;5056589;28;20475;-77
2023/02/24 09:50:22;;;;;;;41.28;24.10;;;15.90;57.80;;;;;;5056683;28;20029;-75
2023/02/24 09:52:50;;;;;;;39.88;24.60;;;15.90;57.80;;;;;;5056533;28;20036;-75
2023/02/24 09:55:29;;;;;;;38.42;23.27;;;16.00;57.70;;;;;;5056191;28;20112;-75
2023/02/24 10:00:51;;;;;;;33.05;20.88;;;16.10;56.30;;;;;;5055716;28;20533;-75
2023/02/24 10:03:41;;;;;;;31.15;20.77;;;16.20;56.50;;;;;;5055284;28;20045;-75
2023/02/24 10:06:34;;;;;;;32.50;20.13;;;16.30;56.40;;;;;;5055804;28;20029;-76
2023/02/24 10:09:33;;;;;;;30.05;18.58;;;16.40;56.50;;;;;;5037630;28;20029;-76
2023/02/24 10:12:22;;;;;;;24.38;16.17;;;16.50;56.20;;;;;;5055419;28;20115;-76
2023/02/24 10:15:18;;;;;;;30.73;17.58;;;16.60;56.00;;;;;;5055262;28;20056;-76
2023/02/24 10:17:56;;;;;;;29.63;18.58;;;16.70;55.50;;;;;;5055250;28;20021;-75
2023/02/24 10:20:39;;;;;;;26.05;16.23;;;16.70;54.50;;;;;;5017303;28;20187;-75
2023/02/24 10:23:31;;;;;;;27.08;17.73;;;16.80;54.50;;;;;;5035029;28;20022;-75
2023/02/24 10:26:20;;;;;;;25.80;16.58;;;16.80;54.40;;;;;;5017243;28;20053;-76
2023/02/24 10:29:17;;;;;;;25.85;16.00;;;16.80;53.50;;;;;;5017373;28;20045;-76
2023/02/24 10:31:44;;;;;;;26.52;15.75;;;16.90;54.10;;;;;;5035008;28;20026;-75
2023/02/24 10:34:18;;;;;;;30.20;15.65;;;16.90;54.30;;;;;;5017155;28;20412;-75
2023/02/24 10:36:49;;;;;;;29.30;16.73;;;17.00;54.10;;;;;;5035297;28;20467;-75
2023/02/24 10:39:24;;;;;;;27.63;15.75;;;17.10;53.50;;;;;;5035299;28;20025;-76
2023/02/24 10:42:14;;;;;;;27.58;15.57;;;17.10;53.40;;;;;;5034600;28;20105;-75
2023/02/24 10:44:52;;;;;;;25.30;16.35;;;17.10;53.30;;;;;;5038008;28;20029;-76
2023/02/24 10:47:29;;;;;;;28.70;17.67;;;17.20;52.50;;;;;;5055113;28;20032;-75
2023/02/24 10:50:01;;;;;;;22.88;15.35;;;17.10;52.10;;;;;;5054785;28;20049;-76
2023/02/24 10:55:38;;;;;;;27.92;17.20;;;17.10;52.60;;;;;;5063066;28;20162;-75
2023/02/24 10:58:05;;;;;;;31.90;18.23;;;17.10;52.20;;;;;;5050414;28;20017;-75
2023/02/24 11:03:40;;;;;;;26.45;15.93;;;17.20;52.50;;;;;;5050334;28;20047;-76
2023/02/24 11:17:58;;;;;;;20.77;14.07;;;17.40;51.60;;;;;;5054687;28;20036;-75
2023/02/24 11:20:34;;;;;;;25.10;15.35;;;17.40;51.20;;;;;;5055405;28;20015;-75
2023/02/24 11:23:03;;;;;;;22.83;14.77;;;17.30;52.00;;;;;;5056984;28;20025;-76
2023/02/24 11:25:38;;;;;;;27.00;15.07;;;17.30;51.40;;;;;;5053414;28;20055;-76
2023/02/24 11:28:34;;;;;;;29.65;15.68;;;17.20;51.30;;;;;;5037372;28;20099;-76
2023/02/24 11:31:25;;;;;;;22.38;14.73;;;17.20;51.00;;;;;;4980300;28;20045;-76
2023/02/24 11:33:59;;;;;;;25.95;14.50;;;17.20;51.30;;;;;;5051534;28;20032;-76
2023/02/24 11:36:38;;;;;;;20.02;13.68;;;17.10;50.80;;;;;;5063834;28;20074;-77
2023/02/24 11:39:33;;;;;;;20.33;13.10;;;17.20;51.60;;;;;;5060492;28;20086;-77
2023/02/24 11:42:04;;;;;;;20.85;13.70;;;17.20;51.90;;;;;;5053961;28;20017;-75
2023/02/24 11:44:45;;;;;;;19.63;11.98;;;17.30;51.40;;;;;;5063110;28;20343;-75
2023/02/24 11:47:15;;;;;;;17.40;11.82;;;17.40;51.50;;;;;;5057066;28;20012;-76
2023/02/24 11:49:51;;;;;;;17.77;10.98;;;17.40;51.00;;;;;;5061269;28;20024;-77
2023/02/24 11:52:29;;;;;;;26.15;12.93;;;17.50;51.10;;;;;;5052236;28;20126;-76
2023/02/24 11:54:58;;;;;;;21.10;12.68;;;17.60;51.40;;;;;;5034947;28;20028;-77
2023/02/24 11:57:38;;;;;;;17.23;12.00;;;17.70;51.00;;;;;;5052807;28;20075;-75
2023/02/24 12:00:19;;;;;;;18.60;12.75;;;17.80;50.80;;;;;;5051393;28;20063;-75
2023/02/24 12:03:03;;;;;;;21.48;13.07;;;17.80;50.50;;;;;;5052982;28;20449;-76
2023/02/24 12:05:37;;;;;;;18.77;12.27;;;17.80;50.40;;;;;;5049776;28;20025;-76
2023/02/24 12:08:15;;;;;;;18.95;12.20;;;17.80;49.70;;;;;;5053576;28;20417;-76
2023/02/24 12:10:51;;;;;;;18.63;12.48;;;17.70;49.70;;;;;;5052972;28;20025;-75
2023/02/24 12:13:28;;;;;;;22.08;12.18;;;17.70;49.90;;;;;;5055252;28;20021;-76
2023/02/24 12:15:58;;;;;;;22.17;11.80;;;17.60;49.90;;;;;;5054968;28;20051;-75
2023/02/24 12:18:35;;;;;;;29.13;11.77;;;17.60;50.00;;;;;;5054958;28;20564;-76
2023/02/24 12:21:09;;;;;;;18.90;11.43;;;17.50;50.00;;;;;;5055297;28;20029;-76
2023/02/24 12:23:38;;;;;;;23.35;11.35;;;17.50;50.10;;;;;;5054068;28;20108;-75
2023/02/24 12:26:41;;;;;;;18.50;11.40;;;17.40;50.30;;;;;;5052784;28;20402;-76
2023/02/24 12:29:31;;;;;;;16.33;10.68;;;17.40;50.40;;;;;;5052601;28;20107;-75
2023/02/24 12:32:40;;;;;;;17.98;12.15;;;17.40;50.70;;;;;;5052823;28;20032;-75
2023/02/24 12:35:18;;;;;;;22.77;11.48;;;17.30;50.90;;;;;;4972283;28;20042;-75
2023/02/24 12:38:08;;;;;;;25.48;15.30;;;17.30;50.90;;;;;;4972612;28;20031;-75
2023/02/24 12:40:50;;;;;;;17.25;11.20;;;17.40;51.30;;;;;;4972535;28;20085;-75
2023/02/24 12:43:39;;;;;;;15.60;10.25;;;17.40;50.70;;;;;;4972542;28;20038;-76
2023/02/24 12:46:26;;;;;;;18.45;10.65;;;17.40;50.80;;;;;;4972184;28;20194;-75
2023/02/24 12:49:14;;;;;;;15.30;10.07;;;17.40;50.30;;;;;;4972241;28;20488;-76
2023/02/24 12:51:46;;;;;;;24.10;11.52;;;17.50;50.40;;;;;;4972015;28;20123;-76
2023/02/24 12:54:37;;;;;;;16.50;10.40;;;17.50;49.90;;;;;;4972089;28;20027;-75
2023/02/24 12:57:23;;;;;;;17.60;10.88;;;17.50;49.70;;;;;;4972073;28;20032;-76
2023/02/24 12:59:50;;;;;;;19.75;10.95;;;17.40;49.30;;;;;;4971924;28;20035;-76
2023/02/24 13:02:15;;;;;;;19.95;11.15;;;17.30;49.70;;;;;;4971860;28;20039;-76
2023/02/24 13:04:56;;;;;;;22.75;10.48;;;17.30;49.50;;;;;;4974445;28;20047;-76
2023/02/24 13:07:51;;;;;;;19.48;10.43;;;17.20;49.70;;;;;;4959739;28;20047;-76
2023/02/24 13:11:02;;;;;;;27.83;11.07;;;17.20;50.20;;;;;;5002600;28;20041;-75
2023/02/24 13:13:40;;;;;;;17.55;9.65;;;17.20;49.80;;;;;;5057459;28;20100;-76
2023/02/24 13:16:10;;;;;;;15.65;9.43;;;17.30;49.70;;;;;;5055885;28;20024;-77
2023/02/24 13:18:38;;;;;;;19.20;8.77;;;17.30;49.40;;;;;;5055386;28;20024;-75
2023/02/24 13:21:21;;;;;;;21.77;9.85;;;17.30;49.50;;;;;;5037761;28;20698;-75
2023/02/24 13:24:02;;;;;;;13.90;7.90;;;17.30;49.60;;;;;;5035571;28;20032;-76
2023/02/24 13:26:31;;;;;;;11.75;7.85;;;17.40;49.80;;;;;;5038845;28;20481;-76
2023/02/24 13:29:11;;;;;;;18.67;9.57;;;17.50;50.10;;;;;;5056415;28;20033;-76
2023/02/24 13:31:49;;;;;;;14.13;8.52;;;17.60;49.60;;;;;;5060163;28;20025;-77
2023/02/24 13:34:29;;;;;;;16.08;8.70;;;17.60;49.50;;;;;;5064334;28;20025;-76
2023/02/24 13:36:56;;;;;;;14.13;8.15;;;17.70;48.70;;;;;;5056408;28;20017;-76
2023/02/24 13:39:34;;;;;;;12.20;7.63;;;17.70;48.70;;;;;;5070537;28;20016;-77